Strona główna
METAR-TAF:

METAR-TAF

Lotnisko :

Cumberland, Maryland, Stany Zjednoczone

Szerokość geograficzna: 39-36-56N, Długość geograficzna: 078-45-39W, wysokość: 236 m

Aktualna obserwacja pogody

Raport powstał 23 minut temu, godzina 03:40 UTC
Cisza
Temperatura 9°C
Wilgotność 76%
Ciśnienie 1009 hPa
Widzialność: 16.1 km
Przerywane chmury na wysokości 8000 ft

METAR: KCBE 120340Z AUTO 00000KT 10SM BKN080 09/05 A2981 RMK AO2 T00920050

czas: 23:03 (04:03 UTC)


TAF: brakujący

Obserwacja i prognoza pogody dla ponad 4000 lotnisk (raport METAR i TAF).

Dostępne stacje oznaczono żółtymi i czerwonymi punktami na mapie.

Najedź kursorem aby zobaczyć nazwę stacji.

Kliknij aby zobaczyć obserwacje i prognozy pogody.

Aby zmienić mapę: kliknij na zielony przycisk z czarnym krzyżykiem, aby powiększyć; na zielony przycisk z myślnikiem, aby pomniejszyć; na zielone strzałki, aby przejść do map sąsiednich.


METAR-TAF: